Latest Weather Observations for Merimbula

IDN60801

Issued at 7:33 pm EST Sunday 26 April 2015 (issued every 30 minutes, with the page automatically refreshed every 10 minutes)

About weather observations | Map of weather stations | Latest weather observations for NSW | Other Formats
Station Details ID: 069147 Name: MERIMBULA AIRPORT AWS Lat: -36.91 Lon: 149.90 Height: 1.5 m
Data from the previous 72 hours. | See also: Recent months at Merimbula
Date/Time
EST
Temp
°C
App
Temp
°C
Dew
Point
Rel
Hum
%
Delta-T
°C
Wind Press
QNH
hPa
Press
MSL
hPa
Rain
since 9 am
mm
Dir
 
Spd
km/h
Gust
km/h
Spd
kts
Gust
kts
26/07:30pm 12.2 9.9 5.6 64 3.1 SW 7 11 4 6 1015.4 1015.4 0.4
26/07:00pm 12.8 9.4 5.9 63 3.2 SW 13 26 7 14 1015.2 1015.2 0.4
26/06:30pm 13.2 9.8 6.1 62 3.4 SW 13 28 7 15 1014.7 1014.7 0.4
26/06:00pm 13.2 9.8 5.9 61 3.4 SW 13 20 7 11 1014.2 1014.2 0.4
26/05:30pm 13.7 8.5 5.6 58 3.8 WSW 22 35 12 19 1013.5 1013.5 0.4
26/05:17pm 14.2 7.9 5.6 56 4.1 WSW 28 46 15 25 1013.5 1013.5 0.4
26/05:00pm 14.3 9.1 5.7 56 4.1 WSW 22 37 12 20 1013.7 1013.7 0.4
26/04:30pm 15.1 11.6 7.4 60 3.8 W 15 26 8 14 1013.5 1013.5 0.4
26/04:00pm 15.5 11.4 7.8 60 3.8 SW 19 32 10 17 1013.2 1013.2 0.4
26/03:30pm 15.9 12.0 8.6 62 3.7 SW 19 33 10 18 1012.6 1012.6 0.4
26/03:00pm 17.1 13.0 8.5 57 4.4 SW 20 35 11 19 1012.0 1012.0 0.4
26/02:30pm 17.7 13.9 9.8 60 4.2 SW 20 39 11 21 1011.8 1011.8 0.4
26/02:00pm 15.8 11.0 8.8 63 3.6 SW 24 37 13 20 1011.6 1011.6 0.4
26/01:30pm 16.9 12.3 9.6 62 3.8 SW 24 39 13 21 1011.6 1011.6 0.4
26/01:00pm 17.0 12.7 10.8 67 3.3 WSW 24 39 13 21 1011.2 1011.2 0.4
26/12:30pm 16.3 12.5 11.2 72 2.7 SW 22 39 12 21 1011.3 1011.3 0.4
26/12:00pm 16.8 12.3 11.3 70 3.0 SSW 26 39 14 21 1010.8 1010.8 0.4
26/11:30am 18.2 14.9 12.9 71 3.0 SSW 22 33 12 18 1010.7 1010.7 0.4
26/10:30am 16.2 14.8 13.3 83 1.6 SSW 13 20 7 11 1010.9 1010.9 0.4
26/10:00am 15.2 14.2 13.4 89 1.0 SW 11 19 6 10 1010.7 1010.7 0.4
26/09:30am 14.8 13.8 13.3 91 0.8 SSW 11 15 6 8 1010.7 1010.7 0.2
26/09:07am 14.3 12.7 12.7 90 0.9 SW 13 20 7 11 1010.5 1010.5 0.0
26/09:00am 14.3 12.8 13.0 92 0.7 SSW 13 19 7 10 1010.4 1010.4 11.4
26/08:53am 14.2 12.6 12.9 92 0.7 SSW 13 19 7 10 1010.5 1010.5 11.4
26/08:30am 14.1 12.1 12.7 91 0.8 SW 15 24 8 13 1010.1 1010.1 11.0
26/08:17am 13.9 12.2 12.6 92 0.7 SW 13 20 7 11 1009.9 1009.9 11.0
26/08:06am 13.8 11.7 12.4 91 0.8 WSW 15 22 8 12 1009.8 1009.8 11.0
26/08:00am 13.8 11.7 12.4 91 0.8 WSW 15 24 8 13 1009.9 1009.9 10.8
26/07:30am 13.5 10.9 11.9 90 0.9 WSW 17 26 9 14 1009.3 1009.3 10.6
26/07:00am 13.3 11.4 11.9 91 0.8 WSW 13 20 7 11 1008.9 1008.9 10.6
26/06:47am 13.4 10.8 12.0 91 0.8 SW 17 28 9 15 1008.6 1008.6 10.4
26/06:30am 13.5 10.9 11.9 90 0.9 SW 17 30 9 16 1008.2 1008.2 9.8
26/06:00am 14.0 11.2 11.2 83 1.5 SW 17 28 9 15 1007.6 1007.6 9.2
26/05:30am 13.8 10.7 10.4 80 1.8 SW 17 26 9 14 1007.2 1007.2 9.2
26/05:00am 13.6 10.9 10.4 81 1.7 WSW 15 20 8 11 1007.0 1007.0 9.2
26/04:30am 12.9 11.0 10.6 86 1.2 W 11 15 6 8 1007.0 1007.0 9.0
26/04:00am 12.4 12.8 11.1 92 0.7 CALM 0 0 0 0 1007.2 1007.2 9.0
26/03:30am 12.1 12.4 10.8 92 0.7 CALM 0 0 0 0 1007.2 1007.2 9.0
26/03:00am 12.0 12.3 10.9 93 0.6 CALM 0 0 0 0 1007.0 1007.0 9.0
26/02:30am 12.3 12.7 11.2 93 0.6 CALM 0 0 0 0 1007.2 1007.2 9.0
26/02:00am 12.4 11.5 10.6 89 0.9 WNW 6 9 3 5 1007.3 1007.3 9.0
26/01:30am 12.9 11.0 10.6 86 1.2 WNW 11 13 6 7 1007.5 1007.5 9.0
26/01:00am 13.1 11.7 10.8 86 1.2 W 9 13 5 7 1007.8 1007.8 9.0
26/12:30am 13.4 11.2 10.8 84 1.4 W 13 20 7 11 1007.8 1007.8 9.0
26/12:00am 13.0 10.9 11.1 88 1.0 W 13 19 7 10 1007.9 1007.9 9.0
 
Date/Time
EST
Temp
°C
App
Temp
°C
Dew
Point
Rel
Hum
%
Delta-T
°C
Wind Press
QNH
hPa
Press
MSL
hPa
Rain
since 9 am
mm
Dir
 
Spd
km/h
Gust
km/h
Spd
kts
Gust
kts
25/11:30pm 12.6 11.4 11.5 93 0.6 W 9 13 5 7 1008.4 1008.4 9.0
25/11:00pm 12.6 11.9 12.0 96 0.3 WNW 7 11 4 6 1008.8 1008.8 9.0
25/10:30pm 12.6 13.2 12.0 96 0.3 CALM 0 0 0 0 1009.1 1009.1 9.0
25/10:00pm 12.4 13.0 11.9 97 0.3 CALM 0 0 0 0 1009.3 1009.3 9.0
25/09:30pm 12.6 13.3 12.1 97 0.3 CALM 0 0 0 0 1009.4 1009.4 9.0
25/09:00pm 12.7 12.6 12.2 97 0.3 WNW 4 13 2 7 1009.1 1009.1 9.0
25/08:30pm 12.5 13.1 12.0 97 0.3 CALM 0 0 0 0 1009.2 1009.2 9.0
25/08:00pm 12.7 13.4 12.2 97 0.3 CALM 0 0 0 0 1008.9 1008.9 9.0
25/07:30pm 12.8 12.4 12.3 97 0.3 SE 6 9 3 5 1008.6 1008.6 9.0
25/07:00pm 12.7 12.1 12.2 97 0.3 SSE 7 9 4 5 1008.5 1008.5 9.0
25/06:30pm 12.5 11.4 12.0 97 0.3 NW 9 15 5 8 1007.9 1007.9 9.0
25/06:00pm 12.4 11.3 11.9 97 0.3 W 9 11 5 6 1008.3 1008.3 9.0
25/05:30pm 12.5 11.8 11.9 96 0.3 WSW 7 11 4 6 1007.9 1007.9 9.0
25/05:00pm 12.2 11.4 11.6 96 0.3 WSW 7 13 4 7 1007.4 1007.4 8.8
25/04:50pm 12.2 11.0 11.6 96 0.3 WNW 9 15 5 8 1007.0 1007.0 8.8
25/04:44pm 12.2 10.9 11.4 95 0.4 WSW 9 15 5 8 1007.0 1007.0 8.8
25/04:31pm 12.1 9.6 11.0 93 0.6 SSW 15 20 8 11 1007.0 1007.0 8.6
25/04:30pm 12.1 9.6 11.0 93 0.6 SSW 15 22 8 12 1007.0 1007.0 8.2
25/04:16pm 13.8 10.4 11.1 84 1.4 SW 20 32 11 17 1007.8 1007.8 1.4
25/04:00pm 16.9 16.1 12.8 77 2.3 ESE 9 32 5 17 1007.1 1007.1 0.6
25/03:30pm 18.7 18.1 13.6 72 2.9 ESE 9 13 5 7 1006.6 1006.6 0.0
25/03:00pm 18.8 18.5 13.2 70 3.2 ESE 7 11 4 6 1006.5 1006.5 0.0
25/02:30pm 18.8 18.0 12.8 68 3.4 ESE 9 13 5 7 1006.4 1006.4 0.0
25/02:00pm 20.4 19.3 12.1 59 4.7 ESE 9 15 5 8 1006.1 1006.1 0.0
25/01:30pm 20.4 18.7 11.3 56 5.0 ESE 11 19 6 10 1006.2 1006.2 0.0
25/01:00pm 19.6 18.4 11.6 60 4.4 ESE 9 19 5 10 1006.4 1006.4 0.0
25/12:30pm 19.0 17.8 11.6 62 4.1 ESE 9 13 5 7 1006.9 1006.9 0.0
25/12:00pm 19.5 17.8 11.3 59 4.5 ESE 11 17 6 9 1007.4 1007.4 0.0
25/11:30am 19.0 17.9 11.8 63 4.0 ENE 9 15 5 8 1007.6 1007.6 0.0
25/11:00am 20.3 18.8 10.7 54 5.2 E 9 11 5 6 1007.9 1007.9 0.0
25/10:30am 19.8 20.6 12.6 63 4.0 CALM 0 0 0 0 1007.7 1007.7 0.0
25/10:00am 18.5 19.5 13.1 71 3.0 CALM 0 2 0 1 1007.8 1007.8 0.0
25/09:30am 16.0 16.6 12.0 77 2.2 CALM 0 0 0 0 1007.8 1007.8 0.0
25/09:00am 15.6 16.7 13.6 88 1.1 CALM 0 2 0 1 1007.7 1007.7 14.0
25/08:30am 13.3 13.8 11.7 90 0.9 CALM 0 0 0 0 1007.6 1007.6 14.0
25/08:00am 12.3 11.7 11.7 96 0.3 WSW 6 11 3 6 1007.6 1007.6 14.0
25/07:30am 11.5 10.2 11.2 98 0.2 WNW 9 13 5 7 1007.3 1007.3 14.0
25/07:10am 10.5 10.6 10.0 97 0.3 CALM 0 0 0 0 1007.0 1007.0 14.0
25/07:00am 10.0 9.9 9.4 96 0.3 CALM 0 0 0 0 1006.9 1006.9 14.0
25/06:37am 10.2 10.2 9.7 97 0.3 CALM 0 0 0 0 1006.8 1006.8 14.0
25/06:30am 10.4 10.4 9.9 97 0.3 CALM 0 0 0 0 1006.8 1006.8 14.0
25/06:00am 10.7 10.8 10.2 97 0.3 CALM 0 0 0 0 1006.7 1006.7 13.8
25/05:30am 10.9 11.1 10.4 97 0.3 CALM 0 0 0 0 1006.3 1006.3 13.8
25/05:00am 11.1 11.3 10.6 97 0.3 CALM 0 0 0 0 1006.2 1006.2 13.8
25/04:30am 11.1 11.3 10.5 96 0.3 CALM 0 0 0 0 1006.0 1006.0 13.8
25/04:07am 11.4 11.7 10.8 96 0.3 CALM 0 0 0 0 1005.8 1005.8 13.8
25/04:00am 11.7 12.1 11.1 96 0.3 CALM 0 0 0 0 1005.8 1005.8 13.8
25/03:30am 12.2 12.7 11.7 97 0.3 CALM 0 0 0 0 1005.5 1005.5 13.8
25/03:14am 12.1 12.6 11.5 96 0.3 CALM 0 0 0 0 1005.4 1005.4 13.8
25/03:00am 12.0 12.4 11.2 95 0.4 CALM 0 0 0 0 1005.5 1005.5 13.8
25/02:55am 11.6 11.9 10.8 95 0.4 CALM 0 0 0 0 1005.4 1005.4 13.8
25/02:30am 12.2 12.7 11.6 96 0.3 CALM 0 0 0 0 1005.5 1005.5 13.8
25/02:00am 13.3 11.7 12.8 97 0.3 NW 13 17 7 9 1005.3 1005.3 13.8
25/01:30am 12.9 12.3 12.4 97 0.3 WSW 7 11 4 6 1005.4 1005.4 13.8
25/01:00am 13.1 13.9 12.6 97 0.3 CALM 0 0 0 0 1005.4 1005.4 13.8
25/12:30am 13.2 12.7 12.7 97 0.3 WNW 7 11 4 6 1005.4 1005.4 13.8
25/12:07am 13.2 12.7 12.7 97 0.3 WNW 7 9 4 5 1005.4 1005.4 13.8
25/12:00am 13.3 13.0 12.8 97 0.3 WNW 6 9 3 5 1005.4 1005.4 13.8
 
Date/Time
EST
Temp
°C
App
Temp
°C
Dew
Point
Rel
Hum
%
Delta-T
°C
Wind Press
QNH
hPa
Press
MSL
hPa
Rain
since 9 am
mm
Dir
 
Spd
km/h
Gust
km/h
Spd
kts
Gust
kts
24/11:30pm 13.3 13.4 12.8 97 0.3 W 4 9 2 5 1005.3 1005.3 13.8
24/11:29pm 13.4 13.6 12.9 97 0.3 W 4 9 2 5 1005.3 1005.3 13.8
24/11:26pm 13.4 13.2 12.9 97 0.3 W 6 9 3 5 1005.2 1005.2 13.8
24/11:18pm 13.5 13.1 13.0 97 0.3 WNW 7 11 4 6 1005.3 1005.3 13.8
24/11:00pm 13.4 14.3 12.9 97 0.3 CALM 0 0 0 0 1005.2 1005.2 13.8
24/10:32pm 13.7 14.7 13.1 96 0.3 CALM 0 0 0 0 1005.1 1005.1 13.6
24/10:30pm 13.7 14.7 13.2 97 0.3 CALM 0 0 0 0 1005.1 1005.1 13.6
24/10:00pm 14.2 15.4 13.7 97 0.3 CALM 0 0 0 0 1005.1 1005.1 13.6
24/09:30pm 14.4 15.6 13.8 96 0.3 CALM 0 0 0 0 1005.1 1005.1 13.6
24/09:00pm 14.5 15.7 13.7 95 0.4 CALM 0 0 0 0 1005.0 1005.0 13.6
24/08:30pm 15.3 15.1 14.7 96 0.3 W 9 11 5 6 1004.9 1004.9 13.6
24/08:00pm 15.3 15.9 14.3 94 0.6 NW 4 7 2 4 1004.5 1004.5 13.6
24/07:59pm 15.2 15.8 14.2 94 0.6 NW 4 7 2 4 1004.5 1004.5 13.6
24/07:30pm 16.1 16.1 15.3 95 0.5 NW 9 13 5 7 1004.4 1004.4 13.6
24/07:01pm 16.4 18.2 15.6 95 0.5 CALM 0 0 0 0 1004.4 1004.4 13.6
24/07:00pm 16.4 18.2 15.6 95 0.5 CALM 0 0 0 0 1004.4 1004.4 13.6
24/06:30pm 16.5 18.3 15.5 94 0.6 CALM 0 0 0 0 1004.2 1004.2 13.6
24/06:28pm 16.5 18.3 15.5 94 0.6 CALM 0 0 0 0 1004.1 1004.1 13.6
24/06:25pm 16.7 18.7 15.9 95 0.5 CALM 0 0 0 0 1004.1 1004.1 13.6
24/06:06pm 17.0 19.1 16.2 95 0.5 CALM 0 0 0 0 1004.1 1004.1 13.6
24/06:00pm 17.0 19.1 16.2 95 0.5 CALM 0 0 0 0 1004.1 1004.1 13.6
24/05:30pm 17.2 19.0 16.4 95 0.5 SSW 2 7 1 4 1003.9 1003.9 13.6
24/05:19pm 17.3 19.1 16.5 95 0.5 SSW 2 7 1 4 1003.8 1003.8 13.6
24/05:00pm 17.4 18.9 16.6 95 0.5 NNW 4 7 2 4 1003.6 1003.6 13.4
24/04:53pm 17.4 18.3 16.6 95 0.5 NW 7 9 4 5 1003.8 1003.8 13.0
24/04:48pm 17.5 18.4 16.7 95 0.5 NNW 7 9 4 5 1003.7 1003.7 12.6
24/04:30pm 17.4 19.6 16.4 94 0.6 CALM 0 0 0 0 1003.4 1003.4 12.4
24/04:00pm 17.5 18.9 16.5 94 0.6 NE 4 9 2 5 1003.1 1003.1 11.8
24/03:30pm 17.6 19.7 16.3 92 0.8 CALM 0 0 0 0 1003.2 1003.2 9.8
24/03:02pm 18.0 18.8 15.8 87 1.3 NW 6 17 3 9 1003.5 1003.5 1.8
24/03:00pm 18.1 19.6 15.7 86 1.4 NNW 2 17 1 9 1003.5 1003.5 1.2
24/02:30pm 18.2 19.9 15.1 82 1.8 CALM 0 0 0 0 1002.5 1002.5 1.0
24/02:00pm 18.9 21.3 16.9 88 1.2 CALM 0 0 0 0 1002.8 1002.8 1.0
24/01:30pm 18.3 20.3 16.1 87 1.3 CALM 0 0 0 0 1002.7 1002.7 1.0
24/01:07pm 18.3 20.4 16.3 88 1.2 CALM 0 0 0 0 1002.9 1002.9 1.0
24/01:00pm 18.1 20.0 15.7 86 1.4 CALM 0 0 0 0 1002.9 1002.9 1.0
24/12:54pm 18.2 20.0 15.6 85 1.5 CALM 0 0 0 0 1003.0 1003.0 0.8
24/12:30pm 18.9 20.3 14.4 75 2.6 CALM 0 0 0 0 1003.2 1003.2 0.0
24/12:00pm 18.8 20.3 14.7 77 2.4 CALM 0 0 0 0 1003.5 1003.5 0.0
24/11:30am 19.0 20.7 15.3 79 2.2 CALM 0 0 0 0 1003.8 1003.8 0.0
24/11:00am 18.8 20.4 14.9 78 2.3 CALM 0 0 0 0 1004.1 1004.1 0.0
24/10:30am 18.7 20.5 15.4 81 1.9 CALM 0 0 0 0 1004.3 1004.3 0.0
24/10:00am 17.5 19.4 15.8 90 1.0 CALM 0 0 0 0 1004.7 1004.7 0.0
24/09:30am 16.3 17.9 14.8 91 0.9 CALM 0 0 0 0 1005.0 1005.0 0.0
24/09:00am 15.1 16.5 14.5 96 0.3 CALM 0 0 0 0 1005.6 1005.6 2.4
24/08:30am 14.4 15.6 13.9 97 0.3 CALM 0 0 0 0 1005.6 1005.6 2.4
24/08:00am 13.7 14.7 13.2 97 0.3 CALM 0 0 0 0 1005.6 1005.6 2.4
24/07:30am 13.2 14.1 12.9 98 0.2 CALM 0 0 0 0 1005.8 1005.8 2.4
24/07:00am 11.9 12.3 11.4 97 0.3 CALM 0 0 0 0 1005.9 1005.9 2.4
24/06:30am 11.7 12.1 11.2 97 0.3 CALM 0 0 0 0 1005.9 1005.9 2.4
24/06:00am 12.0 12.5 11.5 97 0.3 CALM 0 0 0 0 1005.9 1005.9 2.4
24/05:41am 11.9 12.3 11.3 96 0.3 CALM 0 0 0 0 1006.0 1006.0 2.4
24/05:30am 11.5 11.8 10.9 96 0.3 CALM 0 0 0 0 1006.1 1006.1 2.4
24/05:22am 11.6 11.9 11.0 96 0.3 CALM 0 0 0 0 1006.1 1006.1 2.4
24/05:00am 12.2 12.7 11.7 97 0.3 CALM 0 0 0 0 1006.2 1006.2 2.4
24/04:30am 12.7 13.4 12.2 97 0.3 CALM 0 0 0 0 1006.4 1006.4 2.4
24/04:04am 12.5 13.1 12.0 97 0.3 CALM 0 0 0 0 1006.5 1006.5 2.4
24/04:00am 12.6 13.3 12.1 97 0.3 CALM 0 0 0 0 1006.5 1006.5 2.4
24/03:31am 12.5 13.1 11.9 96 0.3 CALM 0 0 0 0 1006.7 1006.7 2.4
24/03:30am 12.4 13.0 11.8 96 0.3 CALM 0 0 0 0 1006.7 1006.7 2.4
24/03:00am 12.7 13.4 12.1 96 0.3 CALM 0 0 0 0 1006.9 1006.9 2.4
24/02:30am 13.7 14.7 13.2 97 0.3 CALM 0 0 0 0 1007.4 1007.4 2.4
24/02:00am 13.5 14.4 13.0 97 0.3 CALM 0 0 0 0 1007.6 1007.6 2.4
24/01:30am 13.3 14.2 12.8 97 0.3 CALM 0 0 0 0 1008.1 1008.1 2.4
24/01:12am 13.1 13.9 12.6 97 0.3 CALM 0 0 0 0 1008.3 1008.3 2.4
24/01:00am 13.7 14.7 13.2 97 0.3 CALM 0 0 0 0 1008.4 1008.4 2.4
24/12:30am 13.6 14.5 13.0 96 0.3 CALM 0 0 0 0 1008.4 1008.4 2.4
24/12:12am 13.8 14.8 13.3 97 0.3 CALM 0 0 0 0 1008.6 1008.6 2.4
24/12:00am 13.5 14.4 12.9 96 0.3 CALM 0 0 0 0 1008.8 1008.8 2.4
 
Date/Time
EST
Temp
°C
App
Temp
°C
Dew
Point
Rel
Hum
%
Delta-T
°C
Wind Press
QNH
hPa
Press
MSL
hPa
Rain
since 9 am
mm
Dir
 
Spd
km/h
Gust
km/h
Spd
kts
Gust
kts
23/11:30pm 13.9 14.9 13.3 96 0.3 CALM 0 0 0 0 1009.1 1009.1 2.4
23/11:00pm 14.1 15.2 13.5 96 0.3 CALM 0 0 0 0 1009.5 1009.5 2.4
23/10:48pm 14.2 15.3 13.6 96 0.3 CALM 0 0 0 0 1009.8 1009.8 2.4
23/10:30pm 14.6 15.9 14.0 96 0.3 CALM 0 0 0 0 1010.1 1010.1 2.4
23/10:00pm 15.1 16.6 14.6 97 0.3 CALM 0 0 0 0 1010.6 1010.6 2.4
23/09:48pm 14.8 16.1 14.2 96 0.3 CALM 0 0 0 0 1010.7 1010.7 2.4
23/09:30pm 14.7 16.0 14.1 96 0.3 CALM 0 0 0 0 1010.8 1010.8 2.4
23/09:00pm 14.7 15.9 13.9 95 0.4 CALM 0 0 0 0 1011.0 1011.0 2.4
23/08:30pm 15.2 16.6 14.4 95 0.5 CALM 0 0 0 0 1011.1 1011.1 2.4
23/08:00pm 15.5 16.9 14.5 94 0.6 CALM 0 0 0 0 1011.1 1011.1 2.4
23/07:58pm 15.6 17.1 14.6 94 0.6 CALM 0 0 0 0 1011.1 1011.1 2.4

Other Formats:

Comma delimited format used in spreadsheet applications
http://www.bom.gov.au/fwo/IDN60801/IDN60801.95929.axf

JavaScript Object Notation format (JSON) in row-major order
http://www.bom.gov.au/fwo/IDN60801/IDN60801.95929.json